Time;durP1;ratioP1;P1;durP2;ratioP2;P2;SDS_P1;SDS_P2;PMS_P1;PMS_P2;Temp;Humidity;BMP_temperature;BMP_pressure;BME280_temperature;BME280_humidity;BME280_pressure;Samples;Min_cycle;Max_cycle;Signal;HPM_P1;HPM_P2
2022/10/05 00:01:26;;;;;;;15.40;6.73;;;;;;;9.45;87.48;95729.94;5112564;28;20172;-80
2022/10/05 00:04:17;;;;;;;12.37;6.37;;;;;;;9.45;87.17;95730.75;5112578;28;20255;-80
2022/10/05 00:06:46;;;;;;;11.43;5.97;;;;;;;9.43;87.14;95731.94;5109237;28;20226;-80
2022/10/05 00:09:20;;;;;;;9.90;5.57;;;;;;;9.38;87.55;95729.84;5112293;28;20260;-80
2022/10/05 00:11:47;;;;;;;9.67;5.37;;;;;;;9.34;87.58;95719.91;5106270;28;20196;-80
2022/10/05 00:14:25;;;;;;;9.77;5.53;;;;;;;9.32;87.75;95729.78;5112433;28;20263;-80
2022/10/05 00:16:51;;;;;;;10.03;5.57;;;;;;;9.21;88.16;95720.53;5112205;28;20640;-79
2022/10/05 00:19:26;;;;;;;9.57;5.93;;;;;;;9.22;88.08;95711.66;5112274;28;20227;-79
2022/10/05 00:21:54;;;;;;;8.87;5.37;;;;;;;9.27;87.58;95722.41;5112149;28;20181;-80
2022/10/05 00:24:19;;;;;;;8.40;5.57;;;;;;;9.24;87.78;95724.59;5115791;27;20180;-79
2022/10/05 00:26:45;;;;;;;7.17;5.67;;;;;;;9.23;87.76;95730.84;5111969;28;20334;-79
2022/10/05 00:29:21;;;;;;;5.87;4.40;;;;;;;9.01;88.50;95708.91;5112165;28;20750;-80
2022/10/05 00:31:47;;;;;;;9.83;5.80;;;;;;;8.95;90.16;95720.13;5112298;28;20208;-80
2022/10/05 00:34:13;;;;;;;8.57;4.30;;;;;;;8.80;90.95;95720.13;5112401;28;20635;-79
2022/10/05 00:36:41;;;;;;;13.07;5.50;;;;;;;8.82;90.54;95726.00;5111974;28;20177;-80
2022/10/05 00:39:06;;;;;;;10.50;5.60;;;;;;;8.88;90.29;95725.28;5112173;28;20712;-79
2022/10/05 00:42:02;;;;;;;11.27;4.93;;;;;;;8.87;89.93;95728.09;5112074;28;20161;-80
2022/10/05 00:44:56;;;;;;;9.77;6.03;;;;;;;8.80;89.66;95708.81;5109261;28;20281;-79
2022/10/05 00:47:53;;;;;;;8.00;5.13;;;;;;;8.86;89.34;95729.91;5112097;28;20625;-80
2022/10/05 00:50:27;;;;;;;11.03;5.27;;;;;;;8.89;89.74;95737.44;5110215;28;20180;-79
2022/10/05 00:53:18;;;;;;;9.80;5.50;;;;;;;8.85;89.97;95737.94;5112027;28;20583;-80
2022/10/05 00:56:05;;;;;;;9.73;6.00;;;;;;;8.77;89.70;95723.09;5112359;28;20165;-80
2022/10/05 00:58:47;;;;;;;8.17;5.33;;;;;;;8.80;89.35;95728.00;5112237;28;20169;-79
2022/10/05 01:01:17;;;;;;;10.37;5.03;;;;;;;8.89;89.11;95737.44;5111423;28;20181;-79
2022/10/05 01:04:07;;;;;;;9.43;5.20;;;;;;;8.91;89.71;95747.72;5111866;28;20172;-80
2022/10/05 01:07:03;;;;;;;5.67;3.87;;;;;;;8.88;89.32;95748.09;5110847;28;20180;-79
2022/10/05 01:09:43;;;;;;;6.77;4.17;;;;;;;8.91;89.68;95747.72;5112391;28;20238;-80
2022/10/05 01:12:24;;;;;;;5.00;3.90;;;;;;;8.74;89.13;95727.88;5110294;28;20254;-80
2022/10/05 01:15:01;;;;;;;5.37;3.80;;;;;;;8.77;89.78;95727.53;5115937;28;20180;-79
2022/10/05 01:17:39;;;;;;;6.17;3.57;;;;;;;8.89;89.68;95749.75;5106680;28;20643;-79
2022/10/05 01:20:15;;;;;;;4.23;3.50;;;;;;;8.91;89.66;95758.22;5115630;28;20169;-80
2022/10/05 01:23:17;;;;;;;3.37;2.93;;;;;;;8.94;89.46;95756.09;5097543;28;20172;-80
2022/10/05 01:26:00;;;;;;;5.30;3.20;;;;;;;8.88;89.19;95764.69;5115721;28;20184;-80
2022/10/05 01:28:34;;;;;;;6.40;3.30;;;;;;;8.89;89.38;95765.50;5111048;28;20234;-80
2022/10/05 01:31:16;;;;;;;6.27;3.50;;;;;;;8.77;88.96;95746.72;5097307;28;20246;-80
2022/10/05 01:34:06;;;;;;;6.17;3.50;;;;;;;8.84;89.01;95771.25;5109987;28;20211;-79
2022/10/05 01:36:42;;;;;;;4.73;3.40;;;;;;;8.77;89.03;95767.72;5113139;28;20270;-79
2022/10/05 01:39:17;;;;;;;3.60;3.10;;;;;;;8.78;89.26;95774.59;5110255;28;20256;-80
2022/10/05 01:41:49;;;;;;;9.30;3.87;;;;;;;8.80;89.17;95787.56;5115213;28;20251;-79
2022/10/05 01:44:54;;;;;;;10.13;3.83;;;;;;;8.70;89.06;95788.63;5114681;28;20727;-80
2022/10/05 01:47:28;;;;;;;5.47;3.83;;;;;;;8.76;89.14;95794.16;5065698;28;20190;-80
2022/10/05 01:50:20;;;;;;;5.23;3.97;;;;;;;8.74;89.03;95801.38;5110886;27;20271;-80
2022/10/05 01:53:03;;;;;;;5.87;3.83;;;;;;;8.72;89.27;95804.19;5092768;28;20228;-80
2022/10/05 01:55:47;;;;;;;5.97;4.17;;;;;;;8.67;88.80;95807.34;5115075;28;20184;-79
2022/10/05 01:58:42;;;;;;;7.63;3.73;;;;;;;8.67;89.05;95806.50;5115087;28;20706;-80
2022/10/05 02:01:25;;;;;;;7.00;4.33;;;;;;;8.64;88.75;95810.31;5071809;27;20187;-79
2022/10/05 02:04:13;;;;;;;11.63;5.20;;;;;;;8.48;89.21;95818.28;5123332;27;20176;-79
2022/10/05 02:06:46;;;;;;;6.77;4.60;;;;;;;8.35;89.46;95807.56;5114985;28;20176;-79
2022/10/05 02:09:24;;;;;;;6.17;3.93;;;;;;;8.42;89.28;95810.28;5108818;28;20600;-79
2022/10/05 02:12:04;;;;;;;7.60;5.13;;;;;;;8.28;89.61;95807.41;5114552;28;20693;-79
2022/10/05 02:14:40;;;;;;;7.20;5.07;;;;;;;8.22;90.52;95810.69;5114782;28;20168;-79
2022/10/05 02:17:13;;;;;;;5.67;4.60;;;;;;;8.21;90.16;95810.91;5114691;28;20703;-79
2022/10/05 02:19:47;;;;;;;5.73;4.57;;;;;;;8.21;90.44;95813.53;5114816;28;20168;-79
2022/10/05 02:22:25;;;;;;;7.10;4.67;;;;;;;8.18;90.03;95817.28;5114145;28;20230;-79
2022/10/05 02:24:56;;;;;;;9.37;7.70;;;;;;;8.16;90.12;95808.78;5088084;28;20188;-79
2022/10/05 02:27:33;;;;;;;12.47;7.30;;;;;;;8.10;89.76;95795.53;5114646;28;20181;-79
2022/10/05 02:30:04;;;;;;;12.50;8.70;;;;;;;7.91;89.74;95771.38;5114782;28;20169;-79
2022/10/05 02:32:43;;;;;;;9.83;8.13;;;;;;;8.20;89.60;95819.75;5114138;28;20303;-79
2022/10/05 02:35:16;;;;;;;14.17;8.40;;;;;;;8.16;89.18;95821.88;5114964;28;20187;-79
2022/10/05 02:38:07;;;;;;;11.03;7.80;;;;;;;8.17;89.03;95813.03;5114735;28;20351;-79
2022/10/05 02:40:32;;;;;;;11.90;8.70;;;;;;;8.10;89.34;95811.28;5082925;28;20637;-79
2022/10/05 02:43:13;;;;;;;10.10;7.47;;;;;;;8.12;89.40;95814.53;5114484;28;20176;-79
2022/10/05 02:45:44;;;;;;;13.47;7.43;;;;;;;8.07;88.84;95811.59;5114349;28;20244;-79
2022/10/05 02:48:15;;;;;;;12.83;7.80;;;;;;;8.07;89.01;95815.03;5114166;28;20169;-79
2022/10/05 02:51:04;;;;;;;11.40;7.70;;;;;;;8.06;88.89;95810.78;5114225;28;20628;-79
2022/10/05 02:53:51;;;;;;;11.50;7.47;;;;;;;8.03;89.07;95808.53;5109408;27;20280;-79
2022/10/05 02:56:35;;;;;;;10.03;6.83;;;;;;;8.01;89.04;95809.69;5108275;28;20180;-79
2022/10/05 02:59:24;;;;;;;10.13;6.60;;;;;;;8.00;88.65;95816.72;5114186;28;20172;-79
2022/10/05 03:01:55;;;;;;;14.10;8.37;;;;;;;7.96;88.87;95818.03;5114150;28;20177;-79
2022/10/05 03:04:41;;;;;;;17.67;9.47;;;;;;;7.79;88.90;95798.13;5114043;28;20165;-79
2022/10/05 03:07:29;;;;;;;14.50;7.50;;;;;;;7.90;89.38;95832.66;5108159;28;20529;-79
2022/10/05 03:10:03;;;;;;;17.50;8.70;;;;;;;7.93;89.05;95831.50;5114203;28;20169;-79
2022/10/05 03:12:38;;;;;;;23.27;7.80;;;;;;;7.83;89.60;95823.03;5095434;28;20280;-79
2022/10/05 03:15:21;;;;;;;11.00;7.30;;;;;;;7.79;89.43;95829.56;5113885;28;20191;-79
2022/10/05 03:18:02;;;;;;;13.43;7.87;;;;;;;7.82;90.02;95829.25;5113560;28;20181;-79
2022/10/05 03:20:47;;;;;;;13.53;8.27;;;;;;;7.85;89.45;95834.16;5093189;28;20648;-79
2022/10/05 03:23:31;;;;;;;16.10;8.30;;;;;;;7.79;89.29;95824.34;5111587;28;20542;-79
2022/10/05 03:26:04;;;;;;;15.83;8.30;;;;;;;7.89;89.53;95828.41;5111929;28;20177;-80
2022/10/05 03:28:57;;;;;;;14.80;8.63;;;;;;;7.87;89.15;95835.59;5113090;28;20177;-80
2022/10/05 03:31:52;;;;;;;15.50;9.73;;;;;;;7.77;89.41;95823.72;5113005;28;20205;-80
2022/10/05 03:34:26;;;;;;;15.87;9.23;;;;;;;7.82;89.95;95843.16;5110226;28;20184;-80
2022/10/05 03:37:00;;;;;;;15.70;9.07;;;;;;;7.66;89.28;95819.66;5103785;28;20629;-80
2022/10/05 03:39:35;;;;;;;13.20;8.63;;;;;;;7.84;89.32;95853.50;5106850;28;20172;-80
2022/10/05 03:42:20;;;;;;;15.20;9.20;;;;;;;7.79;89.15;95848.75;5107530;28;20168;-80
2022/10/05 03:45:23;;;;;;;13.00;7.43;;;;;;;7.77;89.25;95861.22;5109068;28;20224;-80
2022/10/05 03:48:10;;;;;;;16.53;6.50;;;;;;;7.70;90.26;95867.28;5042637;28;20190;-80
2022/10/05 03:51:04;;;;;;;11.73;5.73;;;;;;;7.70;90.73;95865.47;5050011;28;20190;-80
2022/10/05 03:53:38;;;;;;;5.20;4.07;;;;;;;7.64;90.83;95857.47;5082715;28;20192;-80
2022/10/05 03:56:11;;;;;;;4.90;4.07;;;;;;;7.58;91.04;95854.56;5112606;28;20177;-80
2022/10/05 03:58:43;;;;;;;6.57;4.20;;;;;;;7.69;91.34;95878.78;5112926;28;20173;-80
2022/10/05 04:01:16;;;;;;;6.80;5.10;;;;;;;7.74;90.96;95882.50;5112751;28;20214;-80
2022/10/05 04:03:56;;;;;;;9.00;4.13;;;;;;;7.80;91.22;95883.63;5112363;28;20181;-80
2022/10/05 04:06:25;;;;;;;9.47;4.97;;;;;;;7.76;91.02;95880.56;5112613;28;20169;-80
2022/10/05 04:08:58;;;;;;;5.17;3.87;;;;;;;7.76;90.79;95869.25;5112646;28;20176;-80
2022/10/05 04:11:30;;;;;;;9.67;5.67;;;;;;;7.62;91.08;95880.41;5104842;28;20266;-79
2022/10/05 04:14:02;;;;;;;7.33;5.23;;;;;;;7.64;91.44;95883.69;5112532;28;20172;-80
2022/10/05 04:16:33;;;;;;;10.33;5.23;;;;;;;7.62;90.69;95883.84;5112746;28;20234;-80
2022/10/05 04:19:05;;;;;;;9.37;6.63;;;;;;;7.57;90.98;95863.38;5112824;28;20569;-79
2022/10/05 04:21:45;;;;;;;13.00;8.37;;;;;;;7.67;90.74;95884.16;5112452;28;20624;-80
2022/10/05 04:24:24;;;;;;;13.60;6.80;;;;;;;7.69;90.20;95895.31;5111343;28;20546;-79
2022/10/05 04:26:54;;;;;;;18.13;8.20;;;;;;;7.70;89.69;95896.09;5112468;28;20632;-82
2022/10/05 04:29:41;;;;;;;23.17;14.30;;;;;;;7.68;89.16;95893.66;5112242;28;20700;-81
2022/10/05 04:32:35;;;;;;;26.43;12.03;;;;;;;7.47;89.64;95870.59;5112208;28;21135;-82
2022/10/05 04:35:37;;;;;;;23.10;12.33;;;;;;;7.52;90.04;95901.56;5111665;28;20233;-81
2022/10/05 04:38:30;;;;;;;21.47;12.53;;;;;;;7.54;90.25;95900.41;5108243;27;20188;-81
2022/10/05 04:41:04;;;;;;;19.60;12.80;;;;;;;7.59;90.02;95897.28;5112119;28;20644;-81
2022/10/05 04:43:52;;;;;;;21.73;13.07;;;;;;;7.62;89.85;95909.22;5111702;28;20192;-81
2022/10/05 04:46:36;;;;;;;22.40;13.00;;;;;;;7.61;89.70;95921.50;5069948;28;20184;-81
2022/10/05 04:49:19;;;;;;;21.23;12.07;;;;;;;7.59;89.67;95923.50;5094425;28;20169;-81
2022/10/05 04:52:06;;;;;;;19.63;13.33;;;;;;;7.63;89.74;95922.16;5093981;28;20211;-80
2022/10/05 04:54:49;;;;;;;18.60;11.63;;;;;;;7.72;89.74;95931.66;5112324;28;20188;-81
2022/10/05 04:57:25;;;;;;;18.40;9.30;;;;;;;7.42;89.98;95872.94;5112291;28;20613;-81
2022/10/05 05:00:18;;;;;;;18.97;10.17;;;;;;;7.82;89.57;95926.22;5112336;28;20145;-81
2022/10/05 05:02:54;;;;;;;17.40;9.07;;;;;;;7.95;90.27;95918.69;5112295;28;20803;-80
2022/10/05 05:05:19;;;;;;;25.70;9.97;;;;;;;8.47;91.02;95923.44;5112381;28;20157;-81
2022/10/05 05:08:03;;;;;;;14.80;8.90;;;;;;;9.83;88.54;95926.06;5112117;28;20171;-80
2022/10/05 05:10:34;;;;;;;19.17;9.27;;;;;;;11.45;82.28;95924.97;5112121;28;20210;-81
2022/10/05 05:13:32;;;;;;;15.73;10.40;;;;;;;11.96;75.55;95899.19;5112561;28;20177;-81
2022/10/05 05:16:11;;;;;;;14.77;10.17;;;;;;;12.65;73.38;95933.50;5093735;28;20531;-81
2022/10/05 05:19:03;;;;;;;18.67;9.63;;;;;;;13.87;70.87;95937.63;5111947;28;20185;-80
2022/10/05 05:22:00;;;;;;;16.60;10.10;;;;;;;15.27;65.81;95907.84;5112293;28;20153;-81
2022/10/05 05:24:58;;;;;;;12.53;8.27;;;;;;;16.85;58.71;95950.84;5112124;28;20172;-81
2022/10/05 05:27:51;;;;;;;18.95;9.02;;;;;;;18.24;55.61;95939.84;5112479;28;20259;-81
2022/10/05 05:30:39;;;;;;;17.88;8.40;;;;;;;19.47;52.23;95938.63;5112199;28;20632;-82
2022/10/05 05:33:23;;;;;;;16.65;7.75;;;;;;;20.42;49.32;95938.66;5111982;28;20164;-82
2022/10/05 05:35:58;;;;;;;14.43;8.43;;;;;;;20.93;47.44;95923.31;5112074;28;21091;-82
2022/10/05 05:38:34;;;;;;;17.50;8.30;;;;;;;21.70;45.48;95942.69;5111853;28;20157;-82
2022/10/05 05:41:29;;;;;;;13.50;8.40;;;;;;;21.86;44.85;95938.25;5112123;28;20157;-82
2022/10/05 05:44:23;;;;;;;14.98;8.77;;;;;;;22.26;44.16;95931.63;5111813;28;20597;-82
2022/10/05 05:47:01;;;;;;;16.65;9.30;;;;;;;22.79;43.40;95950.25;5112007;28;20157;-83
2022/10/05 05:49:48;;;;;;;19.60;9.23;;;;;;;23.03;43.16;95950.63;5111927;28;21110;-83
2022/10/05 05:52:22;;;;;;;18.50;10.18;;;;;;;23.27;42.29;95954.47;5111583;28;20234;-83
2022/10/05 05:55:20;;;;;;;19.52;9.73;;;;;;;23.28;42.42;95950.72;5093424;28;20168;-83
2022/10/05 05:57:59;;;;;;;26.90;11.35;;;;;;;23.26;42.60;95962.84;5095757;28;20189;-83
2022/10/05 06:00:36;;;;;;;23.00;10.40;;;;;;;23.02;43.71;95969.69;5115493;28;20524;-83
2022/10/05 06:03:31;;;;;;;28.65;11.95;;;;;;;22.30;43.92;95935.41;5114918;28;20172;-83
2022/10/05 06:06:03;;;;;;;19.17;8.88;;;;;;;22.10;45.62;95966.38;5115442;28;20173;-83
2022/10/05 06:08:40;;;;;;;14.32;9.07;;;;;;;21.29;46.31;95911.97;5115721;28;20612;-83
2022/10/05 06:11:16;;;;;;;15.02;7.75;;;;;;;21.20;48.15;95964.34;5115068;28;20184;-83
2022/10/05 06:13:42;;;;;;;15.63;6.60;;;;;;;20.97;48.40;95959.22;5115281;28;20161;-83
2022/10/05 06:16:49;;;;;;;8.57;5.30;;;;;;;20.77;48.71;95964.31;5114893;28;20166;-82
2022/10/05 06:19:18;;;;;;;7.25;4.68;;;;;;;20.75;49.84;95963.75;5032027;28;20561;-83
2022/10/05 06:21:52;;;;;;;6.15;4.35;;;;;;;20.62;49.45;95981.78;5083737;28;20181;-81
2022/10/05 06:24:25;;;;;;;8.82;4.38;;;;;;;20.42;50.55;95989.50;5114796;28;20169;-82
2022/10/05 06:27:05;;;;;;;12.15;4.60;;;;;;;20.54;50.04;95987.53;5114971;28;20153;-82
2022/10/05 06:29:57;;;;;;;10.70;4.80;;;;;;;20.54;50.05;95992.91;5114925;28;20616;-82
2022/10/05 06:32:34;;;;;;;6.30;4.32;;;;;;;20.33;51.50;95980.22;5114664;28;20181;-81
2022/10/05 06:35:19;;;;;;;9.23;5.13;;;;;;;20.54;50.29;96005.47;5114484;28;20546;-81
2022/10/05 06:38:10;;;;;;;10.73;5.03;;;;;;;20.45;51.40;96009.59;5114635;28;20969;-81
2022/10/05 06:40:38;;;;;;;12.85;4.63;;;;;;;20.44;50.44;96005.31;5089119;28;20259;-81
2022/10/05 06:43:15;;;;;;;9.60;5.75;;;;;;;20.40;51.23;96006.88;5114270;28;20253;-81
2022/10/05 06:46:05;;;;;;;13.45;7.30;;;;;;;20.25;51.43;96004.69;5114139;28;20225;-81
2022/10/05 06:48:46;;;;;;;15.05;8.05;;;;;;;20.37;51.74;96013.50;5114441;28;20218;-81
2022/10/05 06:51:22;;;;;;;13.05;7.13;;;;;;;20.09;51.06;96021.56;5096119;28;20330;-80
2022/10/05 06:54:16;;;;;;;9.40;5.72;;;;;;;19.84;53.01;96013.91;5114370;28;20173;-81
2022/10/05 06:56:59;;;;;;;14.30;5.78;;;;;;;19.50;54.07;96004.97;5075726;28;20188;-81
2022/10/05 06:59:55;;;;;;;15.88;7.13;;;;;;;19.34;55.58;96027.88;5114349;28;20165;-80
2022/10/05 07:02:29;;;;;;;10.32;4.70;;;;;;;19.30;55.22;96021.38;5093573;28;20178;-80
2022/10/05 07:05:15;;;;;;;7.25;3.35;;;;;;;19.13;55.78;96015.97;5093901;28;20241;-81
2022/10/05 07:07:54;;;;;;;9.45;4.53;;;;;;;19.00;56.88;96013.56;5093220;28;20185;-81
2022/10/05 07:10:19;;;;;;;5.68;3.47;;;;;;;19.00;55.92;96008.22;5093820;28;20250;-80
2022/10/05 07:12:56;;;;;;;5.28;3.10;;;;;;;19.09;56.59;96011.34;5093636;28;20227;-80
2022/10/05 07:15:34;;;;;;;7.13;3.17;;;;;;;18.65;55.37;96012.78;5093543;28;20177;-78
2022/10/05 07:18:20;;;;;;;3.63;2.83;;;;;;;18.69;57.88;96017.41;5096033;28;21104;-80
2022/10/05 07:20:57;;;;;;;4.03;2.78;;;;;;;18.89;56.08;96010.91;5113552;28;20602;-81
2022/10/05 07:23:41;;;;;;;15.88;9.48;;;;;;;18.94;56.29;96019.03;5114069;28;20167;-80
2022/10/05 07:26:31;;;;;;;17.42;10.52;;;;;;;18.82;56.46;96016.38;5113403;28;20196;-80
2022/10/05 07:29:06;;;;;;;16.25;8.55;;;;;;;18.79;55.77;96011.50;5109473;28;20723;-81
2022/10/05 07:31:59;;;;;;;19.77;11.57;;;;;;;18.85;56.52;96006.03;5102401;28;20239;-80
2022/10/05 07:34:43;;;;;;;12.32;8.18;;;;;;;19.09;55.45;96000.66;5113110;28;20176;-80
2022/10/05 07:40:09;;;;;;;26.55;14.27;;;;;;;19.46;55.89;96003.81;5092885;28;20239;-79
2022/10/05 07:42:51;;;;;;;16.25;7.88;;;;;;;19.62;54.89;96005.75;5092734;28;20157;-79
2022/10/05 07:45:26;;;;;;;4.93;2.42;;;;;;;19.28;52.98;96004.00;5112917;28;20297;-80
2022/10/05 07:47:59;;;;;;;7.35;4.25;;;;;;;19.46;54.95;96017.97;5113362;28;20157;-79
2022/10/05 07:50:33;;;;;;;8.35;4.82;;;;;;;19.80;52.45;96010.91;5112878;28;20173;-79
2022/10/05 07:53:10;;;;;;;7.68;3.67;;;;;;;19.83;51.92;95981.00;5113295;28;20181;-79
2022/10/05 07:55:54;;;;;;;8.48;4.85;;;;;;;20.03;51.50;95990.44;5076847;28;20181;-79
2022/10/05 07:58:50;;;;;;;13.57;8.35;;;;;;;20.42;51.28;96015.44;5112680;28;20172;-79
2022/10/05 08:01:22;;;;;;;2.58;2.20;;;;;;;20.34;49.34;96011.31;5112326;28;20252;-80
2022/10/05 08:03:53;;;;;;;7.30;4.97;;;;;;;20.37;50.24;96024.19;5112831;28;20177;-80
2022/10/05 08:06:37;;;;;;;7.60;4.60;;;;;;;20.36;52.09;96025.25;5112460;28;20996;-79
2022/10/05 08:09:25;;;;;;;4.88;3.30;;;;;;;20.28;50.72;96020.28;5112961;28;20177;-80
2022/10/05 08:12:11;;;;;;;4.53;2.92;;;;;;;20.47;50.74;96024.38;5104189;28;20209;-80
2022/10/05 08:15:00;;;;;;;5.43;2.83;;;;;;;20.59;50.52;96022.41;5112588;28;20169;-80
2022/10/05 08:17:46;;;;;;;11.50;4.10;;;;;;;20.54;49.41;96022.34;5112827;28;20195;-80
2022/10/05 08:20:26;;;;;;;2.60;2.20;;;;;;;20.62;50.77;96023.78;5112015;28;20173;-80
2022/10/05 08:23:05;;;;;;;3.85;2.85;;;;;;;20.71;49.85;96019.63;5112445;28;20177;-80
2022/10/05 08:25:44;;;;;;;4.40;2.85;;;;;;;20.83;50.78;96030.25;5113150;28;20187;-80
2022/10/05 08:28:26;;;;;;;10.27;3.17;;;;;;;20.96;51.95;96035.25;5112413;28;20552;-80
2022/10/05 08:31:28;;;;;;;4.30;3.72;;;;;;;21.06;49.63;96038.06;5113086;28;20173;-80
2022/10/05 08:34:44;;;;;;;3.75;2.60;;;;;;;20.98;50.10;96015.22;5112843;28;20522;-79
2022/10/05 08:37:17;;;;;;;8.00;2.38;;;;;;;21.17;48.92;96012.25;5112219;28;20185;-79
2022/10/05 08:40:10;;;;;;;3.70;2.63;;;;;;;21.05;47.97;96034.59;5112630;28;20172;-78
2022/10/05 08:42:54;;;;;;;3.58;2.78;;;;;;;20.50;50.40;96029.22;5093799;28;20169;-79
2022/10/05 08:46:04;;;;;;;2.63;2.03;;;;;;;20.54;49.21;96034.91;5111909;28;20638;-78
2022/10/05 08:48:41;;;;;;;2.38;2.05;;;;;;;20.54;50.89;96029.56;5094028;28;20615;-79
2022/10/05 08:51:15;;;;;;;6.75;2.20;;;;;;;20.66;50.62;96023.06;5112086;28;20196;-79
2022/10/05 08:54:18;;;;;;;5.78;2.88;;;;;;;20.74;48.02;96024.50;5112254;28;20184;-78
2022/10/05 08:57:13;;;;;;;3.60;2.42;;;;;;;20.73;47.83;96030.09;5112376;28;20153;-79
2022/10/05 09:00:16;;;;;;;3.78;2.95;;;;;;;20.70;48.29;96024.19;5107466;28;20204;-80
2022/10/05 09:03:02;;;;;;;3.80;2.05;;;;;;;20.46;44.80;96022.75;5111818;28;20184;-78
2022/10/05 09:05:49;;;;;;;2.30;2.03;;;;;;;20.18;48.04;96014.75;5112156;28;20179;-80
2022/10/05 09:08:52;;;;;;;3.28;1.63;;;;;;;20.10;45.97;96029.34;5112049;28;20904;-78
2022/10/05 09:11:39;;;;;;;2.20;1.90;;;;;;;20.02;46.50;96032.41;5111598;28;20192;-83
2022/10/05 09:14:28;;;;;;;5.20;2.40;;;;;;;19.98;45.06;96033.13;5111978;28;20145;-80
2022/10/05 09:17:41;;;;;;;3.22;1.60;;;;;;;19.36;45.23;96007.09;5093750;28;20165;-79
2022/10/05 09:20:21;;;;;;;11.15;6.22;;;;;;;19.58;48.88;96032.13;5111914;28;20196;-81
2022/10/05 09:22:56;;;;;;;4.38;3.20;;;;;;;19.83;47.08;96042.50;5112111;28;20165;-79
2022/10/05 09:25:46;;;;;;;10.32;6.20;;;;;;;19.87;46.22;96034.81;5112168;28;20236;-79
2022/10/05 09:28:17;;;;;;;3.47;2.38;;;;;;;19.88;48.85;96028.41;5112291;28;20984;-82
2022/10/05 09:30:54;;;;;;;3.47;2.58;;;;;;;19.91;48.79;96030.59;5112836;28;20173;-80
2022/10/05 09:33:47;;;;;;;9.05;6.50;;;;;;;19.97;48.75;96024.31;5097342;28;20179;-80
2022/10/05 09:36:47;;;;;;;5.80;4.05;;;;;;;19.81;47.17;96025.06;5116041;28;20157;-81
2022/10/05 09:39:15;;;;;;;3.22;1.65;;;;;;;19.63;44.95;96030.63;5115757;28;20192;-79
2022/10/05 09:41:52;;;;;;;4.43;2.45;;;;;;;19.60;48.09;96023.88;5115113;28;20165;-79
2022/10/05 09:44:39;;;;;;;4.93;3.28;;;;;;;19.76;48.38;96027.66;5113819;28;20225;-79
2022/10/05 09:47:44;;;;;;;5.57;1.67;;;;;;;19.83;47.17;96030.97;5112543;28;20172;-79
2022/10/05 09:50:41;;;;;;;8.32;5.07;;;;;;;19.65;47.16;96002.59;5113490;28;20176;-79
2022/10/05 09:53:39;;;;;;;7.72;3.95;;;;;;;19.75;47.91;96024.16;5113428;28;20204;-79
2022/10/05 09:56:19;;;;;;;5.90;3.35;;;;;;;19.77;46.58;96035.44;5113388;28;20169;-79
2022/10/05 09:59:12;;;;;;;3.97;1.50;;;;;;;19.24;49.66;96017.00;5113216;28;20666;-79
2022/10/05 10:02:05;;;;;;;2.80;1.80;;;;;;;18.76;48.78;96019.97;5113359;28;20180;-79
2022/10/05 10:04:42;;;;;;;4.63;1.60;;;;;;;18.82;51.19;96022.53;5113062;28;20720;-79
2022/10/05 10:07:35;;;;;;;2.63;1.88;;;;;;;18.62;47.22;96027.38;5113111;28;20187;-79
2022/10/05 10:10:06;;;;;;;5.03;1.95;;;;;;;18.48;49.22;96026.78;5112543;28;20202;-79
2022/10/05 10:12:43;;;;;;;1.33;1.23;;;;;;;18.51;49.14;96025.50;5112956;28;20185;-79
2022/10/05 10:15:47;;;;;;;2.08;1.60;;;;;;;18.64;47.04;96027.97;5112957;28;20191;-79
2022/10/05 10:18:50;;;;;;;3.22;1.60;;;;;;;18.29;47.01;96024.44;5079910;28;20188;-79
2022/10/05 10:21:29;;;;;;;2.45;1.50;;;;;;;18.22;49.02;96029.06;5112665;28;20256;-79
2022/10/05 10:24:13;;;;;;;3.53;1.88;;;;;;;18.21;48.90;96024.78;5112863;28;20655;-79
2022/10/05 10:26:54;;;;;;;3.38;1.60;;;;;;;17.97;47.75;96024.75;5112836;28;20540;-81
2022/10/05 10:29:19;;;;;;;1.52;1.38;;;;;;;17.86;49.42;96027.34;5112772;28;20242;-79
2022/10/05 10:32:03;;;;;;;3.05;2.22;;;;;;;17.76;50.23;96021.75;5112542;28;20203;-79
2022/10/05 10:35:19;;;;;;;2.67;1.63;;;;;;;17.68;50.52;96006.91;5110821;28;20510;-79
2022/10/05 10:38:15;;;;;;;4.10;1.60;;;;;;;17.75;48.13;96018.28;5112517;28;20180;-79
2022/10/05 10:40:50;;;;;;;2.03;1.67;;;;;;;17.62;48.40;96005.97;5112511;28;20184;-79
2022/10/05 10:43:43;;;;;;;3.25;1.52;;;;;;;17.75;51.13;96004.16;5111563;28;20183;-79
2022/10/05 10:46:27;;;;;;;3.95;1.85;;;;;;;17.86;52.04;96000.72;5112303;28;20189;-79
2022/10/05 10:49:14;;;;;;;3.95;1.67;;;;;;;17.73;52.06;95978.56;5114449;27;20619;-79
2022/10/05 10:51:49;;;;;;;6.70;1.40;;;;;;;17.63;49.00;95980.97;5112221;28;20239;-79
2022/10/05 10:54:39;;;;;;;4.65;1.92;;;;;;;17.82;51.99;95988.88;5112010;28;20179;-79
2022/10/05 10:57:10;;;;;;;6.07;2.47;;;;;;;17.86;50.10;95974.06;5111927;28;20185;-79
2022/10/05 11:00:04;;;;;;;6.15;1.65;;;;;;;18.07;47.08;95979.66;5112144;28;20656;-79
2022/10/05 11:02:36;;;;;;;1.52;1.00;;;;;;;18.17;50.01;95986.28;5112001;28;20204;-79
2022/10/05 11:05:07;;;;;;;3.95;1.27;;;;;;;18.25;47.55;95989.41;5111888;28;20211;-79
2022/10/05 11:07:44;;;;;;;2.08;1.40;;;;;;;18.14;48.03;95965.44;5111823;28;20558;-79
2022/10/05 11:10:46;;;;;;;1.35;1.15;;;;;;;18.35;45.30;95967.53;5111663;28;20185;-79
2022/10/05 11:13:11;;;;;;;2.55;1.20;;;;;;;18.06;46.88;95963.94;5112277;28;20210;-79
2022/10/05 11:16:06;;;;;;;4.78;1.42;;;;;;;18.06;49.26;95959.41;5111724;28;20188;-79
2022/10/05 11:18:56;;;;;;;4.00;1.70;;;;;;;17.89;50.17;95942.47;5111716;28;20200;-79
2022/10/05 11:21:47;;;;;;;2.25;1.30;;;;;;;18.09;49.06;95950.94;5111790;28;20256;-79
2022/10/05 11:24:37;;;;;;;1.30;1.20;;;;;;;17.66;46.85;95953.88;5111477;28;20181;-79
2022/10/05 11:27:35;;;;;;;4.38;1.65;;;;;;;17.47;48.71;95954.94;5111662;28;20177;-79
2022/10/05 11:30:25;;;;;;;2.75;1.60;;;;;;;17.67;49.91;95952.00;5066437;28;20580;-79
2022/10/05 11:33:10;;;;;;;2.03;1.40;;;;;;;17.91;49.72;95950.22;5111629;28;20207;-80
2022/10/05 11:35:57;;;;;;;3.40;1.70;;;;;;;18.14;51.05;95942.25;5112165;28;20181;-80
2022/10/05 11:38:37;;;;;;;5.00;1.35;;;;;;;18.29;50.12;95947.13;5111847;28;20607;-80
2022/10/05 11:41:27;;;;;;;1.85;1.60;;;;;;;18.40;46.36;95935.66;5111505;28;20229;-79
2022/10/05 11:44:12;;;;;;;4.25;1.65;;;;;;;18.38;49.37;95933.22;5111305;28;20220;-80
2022/10/05 11:46:47;;;;;;;3.80;1.75;;;;;;;18.48;48.54;95933.44;5111464;28;20180;-80
2022/10/05 11:49:50;;;;;;;1.52;1.42;;;;;;;18.59;49.09;95934.50;5111475;28;20271;-80
2022/10/05 11:52:36;;;;;;;5.13;1.42;;;;;;;18.62;47.86;95941.22;5111292;28;20256;-80
2022/10/05 11:55:23;;;;;;;1.30;1.20;;;;;;;18.57;48.19;95935.78;5109586;28;20181;-80
2022/10/05 11:58:12;;;;;;;1.55;1.40;;;;;;;18.29;46.56;95918.63;5114581;27;20183;-80
2022/10/05 12:00:55;;;;;;;1.40;1.20;;;;;;;18.27;46.45;95918.03;5112651;27;20561;-80
2022/10/05 12:03:36;;;;;;;2.97;1.40;;;;;;;18.34;46.31;95909.91;5111216;28;20177;-79
2022/10/05 12:06:05;;;;;;;3.05;1.30;;;;;;;18.18;45.55;95876.75;5111108;28;20227;-80
2022/10/05 12:08:45;;;;;;;1.92;1.40;;;;;;;18.31;44.23;95897.06;5110869;28;20197;-80
2022/10/05 12:11:42;;;;;;;9.82;1.90;;;;;;;18.47;47.72;95917.66;5110710;28;20180;-80
2022/10/05 12:14:32;;;;;;;2.97;1.38;;;;;;;18.24;43.79;95915.84;5097042;28;20185;-80
2022/10/05 12:17:12;;;;;;;2.55;1.30;;;;;;;18.31;47.48;95918.38;5110441;28;20176;-80
2022/10/05 12:19:44;;;;;;;2.03;1.52;;;;;;;18.41;46.88;95919.44;5110488;28;20196;-80
2022/10/05 12:22:51;;;;;;;1.90;1.38;;;;;;;18.43;44.76;95914.66;5092726;28;20292;-80
2022/10/05 12:25:22;;;;;;;1.38;1.20;;;;;;;18.43;44.02;95919.16;5021791;28;20183;-80
2022/10/05 12:27:52;;;;;;;2.40;1.10;;;;;;;18.39;44.31;95900.19;5020869;28;20239;-80
2022/10/05 12:30:33;;;;;;;2.00;1.08;;;;;;;18.56;43.70;95916.28;5079633;27;20272;-80
2022/10/05 12:33:39;;;;;;;1.45;0.90;;;;;;;18.62;43.13;95920.69;5110126;28;20196;-80
2022/10/05 12:36:13;;;;;;;2.17;1.40;;;;;;;18.71;43.33;95919.28;5091927;28;20613;-79
2022/10/05 12:38:43;;;;;;;1.30;1.17;;;;;;;18.79;45.31;95921.59;5110544;28;20313;-80
2022/10/05 12:41:25;;;;;;;3.75;1.65;;;;;;;18.87;46.50;95923.06;5110154;28;20195;-80
2022/10/05 12:44:05;;;;;;;1.52;1.30;;;;;;;18.83;43.72;95903.25;5110249;28;20279;-80
2022/10/05 12:46:48;;;;;;;1.65;1.20;;;;;;;18.76;41.84;95895.41;5127605;27;20181;-80
2022/10/05 12:49:30;;;;;;;1.48;1.33;;;;;;;18.72;42.45;95904.09;5119487;28;20329;-79